sensor_id;sensor_type;location;lat;lon;timestamp;temperature;humidity
80706;DHT22;70229;48.010;7.852;2023-07-31T06:45:48;18.70;69.80
80706;DHT22;70229;48.010;7.852;2023-07-31T06:48:44;17.00;68.90
80706;DHT22;70229;48.010;7.852;2023-07-31T06:51:10;18.60;70.40
80706;DHT22;70229;48.010;7.852;2023-07-31T06:53:36;18.70;69.30
80706;DHT22;70229;48.010;7.852;2023-07-31T06:56:41;18.70;70.10
80706;DHT22;70229;48.010;7.852;2023-07-31T06:59:27;18.60;70.10
80706;DHT22;70229;48.010;7.852;2023-07-31T07:05:51;18.90;69.20
80706;DHT22;70229;48.010;7.852;2023-07-31T07:08:28;19.10;68.20
80706;DHT22;70229;48.010;7.852;2023-07-31T08:02:06;20.60;63.60
80706;DHT22;70229;48.010;7.852;2023-07-31T08:04:32;20.40;64.20
80706;DHT22;70229;48.010;7.852;2023-07-31T08:06:57;20.20;64.80
80706;DHT22;70229;48.010;7.852;2023-07-31T08:09:23;20.30;64.60
80706;DHT22;70229;48.010;7.852;2023-07-31T08:11:48;20.30;64.90
80706;DHT22;70229;48.010;7.852;2023-07-31T08:14:14;20.20;65.30
80706;DHT22;70229;48.010;7.852;2023-07-31T08:16:40;20.30;64.50
80706;DHT22;70229;48.010;7.852;2023-07-31T08:19:05;20.20;64.70
80706;DHT22;70229;48.010;7.852;2023-07-31T08:21:31;20.50;64.60
80706;DHT22;70229;48.010;7.852;2023-07-31T08:23:57;20.50;63.90
80706;DHT22;70229;48.010;7.852;2023-07-31T08:26:22;20.50;64.00
80706;DHT22;70229;48.010;7.852;2023-07-31T08:28:48;20.40;63.90
80706;DHT22;70229;48.010;7.852;2023-07-31T08:31:14;20.50;64.50
80706;DHT22;70229;48.010;7.852;2023-07-31T08:33:39;21.00;63.40
80706;DHT22;70229;48.010;7.852;2023-07-31T08:36:06;20.90;62.60
80706;DHT22;70229;48.010;7.852;2023-07-31T08:38:32;20.70;62.60
80706;DHT22;70229;48.010;7.852;2023-07-31T08:40:58;21.00;62.70
80706;DHT22;70229;48.010;7.852;2023-07-31T08:43:27;21.20;61.60
80706;DHT22;70229;48.010;7.852;2023-07-31T08:45:53;21.00;61.10
80706;DHT22;70229;48.010;7.852;2023-07-31T08:48:21;21.10;61.30
80706;DHT22;70229;48.010;7.852;2023-07-31T08:50:46;21.20;61.20
80706;DHT22;70229;48.010;7.852;2023-07-31T08:53:12;21.20;61.10
80706;DHT22;70229;48.010;7.852;2023-07-31T08:55:38;21.20;61.50
80706;DHT22;70229;48.010;7.852;2023-07-31T08:58:04;21.40;61.00
80706;DHT22;70229;48.010;7.852;2023-07-31T09:00:32;21.60;60.60
80706;DHT22;70229;48.010;7.852;2023-07-31T09:03:01;21.60;61.00
80706;DHT22;70229;48.010;7.852;2023-07-31T09:05:29;21.70;60.90
80706;DHT22;70229;48.010;7.852;2023-07-31T09:07:56;21.70;59.90
80706;DHT22;70229;48.010;7.852;2023-07-31T09:10:22;21.50;61.20
80706;DHT22;70229;48.010;7.852;2023-07-31T09:12:50;21.40;61.10
80706;DHT22;70229;48.010;7.852;2023-07-31T09:15:16;21.50;61.70
80706;DHT22;70229;48.010;7.852;2023-07-31T09:17:42;21.40;61.50
80706;DHT22;70229;48.010;7.852;2023-07-31T09:22:40;20.90;61.00
80706;DHT22;70229;48.010;7.852;2023-07-31T09:25:21;21.30;62.00
80706;DHT22;70229;48.010;7.852;2023-07-31T09:27:56;21.30;61.70
80706;DHT22;70229;48.010;7.852;2023-07-31T09:30:22;21.60;60.00
80706;DHT22;70229;48.010;7.852;2023-07-31T09:32:49;21.80;60.80
80706;DHT22;70229;48.010;7.852;2023-07-31T09:37:55;21.60;60.50
80706;DHT22;70229;48.010;7.852;2023-07-31T09:40:27;21.50;59.50
80706;DHT22;70229;48.010;7.852;2023-07-31T09:43:01;21.80;60.60
80706;DHT22;70229;48.010;7.852;2023-07-31T09:45:27;21.90;60.50
80706;DHT22;70229;48.010;7.852;2023-07-31T09:47:54;22.10;60.60
80706;DHT22;70229;48.010;7.852;2023-07-31T09:50:24;22.00;59.20
80706;DHT22;70229;48.010;7.852;2023-07-31T09:52:51;22.20;59.90
80706;DHT22;70229;48.010;7.852;2023-07-31T09:55:17;22.30;59.00
80706;DHT22;70229;48.010;7.852;2023-07-31T09:57:46;22.40;59.20
80706;DHT22;70229;48.010;7.852;2023-07-31T10:00:13;22.60;58.80
80706;DHT22;70229;48.010;7.852;2023-07-31T10:02:39;22.70;59.00
80706;DHT22;70229;48.010;7.852;2023-07-31T10:05:06;22.60;58.50
80706;DHT22;70229;48.010;7.852;2023-07-31T10:07:39;22.40;59.40
80706;DHT22;70229;48.010;7.852;2023-07-31T10:10:07;22.60;59.00
80706;DHT22;70229;48.010;7.852;2023-07-31T10:12:33;22.70;58.70
80706;DHT22;70229;48.010;7.852;2023-07-31T10:15:00;22.70;57.90
80706;DHT22;70229;48.010;7.852;2023-07-31T10:17:26;22.60;59.10
80706;DHT22;70229;48.010;7.852;2023-07-31T10:19:53;22.80;58.30
80706;DHT22;70229;48.010;7.852;2023-07-31T10:22:20;23.10;58.30
80706;DHT22;70229;48.010;7.852;2023-07-31T10:24:46;23.20;57.40
80706;DHT22;70229;48.010;7.852;2023-07-31T10:27:14;23.20;57.20
80706;DHT22;70229;48.010;7.852;2023-07-31T10:29:41;23.10;57.20
80706;DHT22;70229;48.010;7.852;2023-07-31T10:32:09;23.20;57.10
80706;DHT22;70229;48.010;7.852;2023-07-31T10:34:39;23.50;56.80
80706;DHT22;70229;48.010;7.852;2023-07-31T10:37:37;23.60;56.90
80706;DHT22;70229;48.010;7.852;2023-07-31T10:40:06;23.50;57.00
80706;DHT22;70229;48.010;7.852;2023-07-31T10:45:32;23.30;58.20
80706;DHT22;70229;48.010;7.852;2023-07-31T10:48:12;23.50;57.70
80706;DHT22;70229;48.010;7.852;2023-07-31T10:50:49;23.20;56.90
80706;DHT22;70229;48.010;7.852;2023-07-31T10:53:45;23.40;58.20
80706;DHT22;70229;48.010;7.852;2023-07-31T10:56:10;23.20;55.80
80706;DHT22;70229;48.010;7.852;2023-07-31T10:58:45;22.60;56.30
80706;DHT22;70229;48.010;7.852;2023-07-31T11:01:11;22.70;56.70
80706;DHT22;70229;48.010;7.852;2023-07-31T11:03:42;23.00;56.20
80706;DHT22;70229;48.010;7.852;2023-07-31T11:06:09;23.00;56.00
80706;DHT22;70229;48.010;7.852;2023-07-31T11:08:44;22.80;57.10
80706;DHT22;70229;48.010;7.852;2023-07-31T11:11:12;22.70;57.30
80706;DHT22;70229;48.010;7.852;2023-07-31T11:13:51;22.90;57.10
80706;DHT22;70229;48.010;7.852;2023-07-31T11:16:22;23.10;56.60
80706;DHT22;70229;48.010;7.852;2023-07-31T11:18:48;22.90;57.50
80706;DHT22;70229;48.010;7.852;2023-07-31T11:21:19;22.80;57.70
80706;DHT22;70229;48.010;7.852;2023-07-31T11:23:50;22.70;57.80
80706;DHT22;70229;48.010;7.852;2023-07-31T11:26:17;22.70;58.20
80706;DHT22;70229;48.010;7.852;2023-07-31T11:28:43;22.80;58.10
80706;DHT22;70229;48.010;7.852;2023-07-31T11:31:11;22.50;59.90
80706;DHT22;70229;48.010;7.852;2023-07-31T11:33:37;23.00;58.50
80706;DHT22;70229;48.010;7.852;2023-07-31T11:36:03;23.40;57.60
80706;DHT22;70229;48.010;7.852;2023-07-31T11:38:31;23.50;56.40
80706;DHT22;70229;48.010;7.852;2023-07-31T11:41:02;23.30;58.00
80706;DHT22;70229;48.010;7.852;2023-07-31T11:43:33;23.00;58.00
80706;DHT22;70229;48.010;7.852;2023-07-31T11:46:01;23.10;58.10
80706;DHT22;70229;48.010;7.852;2023-07-31T11:48:34;23.20;58.70
80706;DHT22;70229;48.010;7.852;2023-07-31T11:51:02;22.40;58.70
80706;DHT22;70229;48.010;7.852;2023-07-31T11:53:33;22.70;59.80
80706;DHT22;70229;48.010;7.852;2023-07-31T11:56:00;23.10;60.20
80706;DHT22;70229;48.010;7.852;2023-07-31T11:58:27;23.40;57.90
80706;DHT22;70229;48.010;7.852;2023-07-31T12:00:53;23.80;57.20
80706;DHT22;70229;48.010;7.852;2023-07-31T12:03:19;24.20;58.10
80706;DHT22;70229;48.010;7.852;2023-07-31T12:05:47;23.50;56.20
80706;DHT22;70229;48.010;7.852;2023-07-31T12:08:13;24.10;55.90
80706;DHT22;70229;48.010;7.852;2023-07-31T12:10:39;24.00;56.60
80706;DHT22;70229;48.010;7.852;2023-07-31T12:13:11;24.40;57.00
80706;DHT22;70229;48.010;7.852;2023-07-31T12:15:44;24.80;55.20
80706;DHT22;70229;48.010;7.852;2023-07-31T12:18:11;25.00;56.00
80706;DHT22;70229;48.010;7.852;2023-07-31T12:20:45;25.30;53.80
80706;DHT22;70229;48.010;7.852;2023-07-31T12:23:19;24.90;54.10
80706;DHT22;70229;48.010;7.852;2023-07-31T12:26:11;25.20;54.40
80706;DHT22;70229;48.010;7.852;2023-07-31T12:28:48;25.40;53.90
80706;DHT22;70229;48.010;7.852;2023-07-31T12:31:16;25.30;54.20
80706;DHT22;70229;48.010;7.852;2023-07-31T12:33:46;25.30;53.00
80706;DHT22;70229;48.010;7.852;2023-07-31T12:36:13;25.30;52.50
80706;DHT22;70229;48.010;7.852;2023-07-31T12:38:39;25.30;53.40
80706;DHT22;70229;48.010;7.852;2023-07-31T12:41:05;25.10;54.20
80706;DHT22;70229;48.010;7.852;2023-07-31T12:43:35;25.50;53.40
80706;DHT22;70229;48.010;7.852;2023-07-31T12:46:01;25.70;53.60
80706;DHT22;70229;48.010;7.852;2023-07-31T12:48:26;25.80;52.40
80706;DHT22;70229;48.010;7.852;2023-07-31T12:50:52;25.80;52.10
80706;DHT22;70229;48.010;7.852;2023-07-31T12:53:17;25.60;51.80
80706;DHT22;70229;48.010;7.852;2023-07-31T12:55:43;25.70;52.10
80706;DHT22;70229;48.010;7.852;2023-07-31T12:58:09;25.60;52.20
80706;DHT22;70229;48.010;7.852;2023-07-31T13:00:34;25.80;51.90
80706;DHT22;70229;48.010;7.852;2023-07-31T13:03:01;26.00;50.80
80706;DHT22;70229;48.010;7.852;2023-07-31T13:05:27;25.80;50.60
80706;DHT22;70229;48.010;7.852;2023-07-31T13:07:53;26.00;51.80
80706;DHT22;70229;48.010;7.852;2023-07-31T13:10:19;25.80;52.50
80706;DHT22;70229;48.010;7.852;2023-07-31T13:12:44;25.70;52.50
80706;DHT22;70229;48.010;7.852;2023-07-31T13:15:10;25.80;52.10
80706;DHT22;70229;48.010;7.852;2023-07-31T13:17:36;25.90;52.80
80706;DHT22;70229;48.010;7.852;2023-07-31T13:20:02;25.80;52.50
80706;DHT22;70229;48.010;7.852;2023-07-31T13:22:29;26.10;52.80
80706;DHT22;70229;48.010;7.852;2023-07-31T13:24:55;26.10;51.30
80706;DHT22;70229;48.010;7.852;2023-07-31T13:27:20;25.80;52.00
80706;DHT22;70229;48.010;7.852;2023-07-31T13:29:48;25.80;51.70
80706;DHT22;70229;48.010;7.852;2023-07-31T13:32:15;25.90;51.80
80706;DHT22;70229;48.010;7.852;2023-07-31T13:34:41;26.10;51.90
80706;DHT22;70229;48.010;7.852;2023-07-31T13:37:06;26.20;51.70
80706;DHT22;70229;48.010;7.852;2023-07-31T13:39:32;25.80;52.60
80706;DHT22;70229;48.010;7.852;2023-07-31T13:42:02;25.90;52.30
80706;DHT22;70229;48.010;7.852;2023-07-31T13:44:28;25.90;50.90
80706;DHT22;70229;48.010;7.852;2023-07-31T13:46:54;25.90;53.10
80706;DHT22;70229;48.010;7.852;2023-07-31T13:49:19;26.00;51.80
80706;DHT22;70229;48.010;7.852;2023-07-31T13:51:45;26.10;51.70
80706;DHT22;70229;48.010;7.852;2023-07-31T13:54:11;26.00;51.70
80706;DHT22;70229;48.010;7.852;2023-07-31T13:56:37;26.30;51.50
80706;DHT22;70229;48.010;7.852;2023-07-31T13:59:03;25.80;51.20
80706;DHT22;70229;48.010;7.852;2023-07-31T14:01:29;26.00;51.70
80706;DHT22;70229;48.010;7.852;2023-07-31T14:03:54;26.20;50.60
80706;DHT22;70229;48.010;7.852;2023-07-31T14:06:20;25.50;51.40
80706;DHT22;70229;48.010;7.852;2023-07-31T14:08:45;25.60;51.30
80706;DHT22;70229;48.010;7.852;2023-07-31T14:11:11;25.40;51.80
80706;DHT22;70229;48.010;7.852;2023-07-31T14:13:36;25.60;51.70
80706;DHT22;70229;48.010;7.852;2023-07-31T14:16:02;25.60;52.10
80706;DHT22;70229;48.010;7.852;2023-07-31T14:18:28;25.60;51.30
80706;DHT22;70229;48.010;7.852;2023-07-31T14:20:53;25.70;51.70
80706;DHT22;70229;48.010;7.852;2023-07-31T14:23:19;25.50;52.10
80706;DHT22;70229;48.010;7.852;2023-07-31T14:25:46;25.60;51.70
80706;DHT22;70229;48.010;7.852;2023-07-31T14:28:11;25.40;52.30
80706;DHT22;70229;48.010;7.852;2023-07-31T14:30:37;25.40;52.70
80706;DHT22;70229;48.010;7.852;2023-07-31T14:33:02;25.50;52.80
80706;DHT22;70229;48.010;7.852;2023-07-31T14:35:29;25.50;51.60
80706;DHT22;70229;48.010;7.852;2023-07-31T14:37:54;25.50;52.80
80706;DHT22;70229;48.010;7.852;2023-07-31T14:40:20;25.60;52.40
80706;DHT22;70229;48.010;7.852;2023-07-31T14:42:46;25.60;52.50
80706;DHT22;70229;48.010;7.852;2023-07-31T14:45:11;25.60;51.00
80706;DHT22;70229;48.010;7.852;2023-07-31T14:47:37;25.70;51.10
80706;DHT22;70229;48.010;7.852;2023-07-31T14:50:03;25.70;51.70
80706;DHT22;70229;48.010;7.852;2023-07-31T14:52:29;25.70;51.70
80706;DHT22;70229;48.010;7.852;2023-07-31T14:54:55;25.80;51.20
80706;DHT22;70229;48.010;7.852;2023-07-31T14:57:20;25.70;51.60
80706;DHT22;70229;48.010;7.852;2023-07-31T14:59:46;25.70;51.70
80706;DHT22;70229;48.010;7.852;2023-07-31T15:02:12;25.70;51.90
80706;DHT22;70229;48.010;7.852;2023-07-31T15:04:38;25.50;51.60
80706;DHT22;70229;48.010;7.852;2023-07-31T15:07:04;25.50;51.80
80706;DHT22;70229;48.010;7.852;2023-07-31T15:09:30;25.40;52.10
80706;DHT22;70229;48.010;7.852;2023-07-31T15:11:56;25.40;52.00
80706;DHT22;70229;48.010;7.852;2023-07-31T15:14:22;25.40;52.20
80706;DHT22;70229;48.010;7.852;2023-07-31T15:16:48;25.50;52.00
80706;DHT22;70229;48.010;7.852;2023-07-31T15:19:14;25.40;52.40
80706;DHT22;70229;48.010;7.852;2023-07-31T15:21:40;25.50;51.60
80706;DHT22;70229;48.010;7.852;2023-07-31T15:24:06;25.40;51.80
80706;DHT22;70229;48.010;7.852;2023-07-31T15:26:31;25.50;52.10
80706;DHT22;70229;48.010;7.852;2023-07-31T15:29:02;25.60;52.20
80706;DHT22;70229;48.010;7.852;2023-07-31T15:31:30;25.60;52.30
80706;DHT22;70229;48.010;7.852;2023-07-31T15:33:56;25.50;51.50
80706;DHT22;70229;48.010;7.852;2023-07-31T15:36:22;25.40;51.80
80706;DHT22;70229;48.010;7.852;2023-07-31T15:38:47;25.30;52.00
80706;DHT22;70229;48.010;7.852;2023-07-31T15:41:16;25.40;51.80
80706;DHT22;70229;48.010;7.852;2023-07-31T15:43:42;25.30;52.30
80706;DHT22;70229;48.010;7.852;2023-07-31T15:46:08;25.30;52.60
80706;DHT22;70229;48.010;7.852;2023-07-31T15:48:33;25.30;53.40
80706;DHT22;70229;48.010;7.852;2023-07-31T15:50:59;25.40;52.40
80706;DHT22;70229;48.010;7.852;2023-07-31T15:53:26;25.40;52.40
80706;DHT22;70229;48.010;7.852;2023-07-31T15:55:52;25.30;52.10
80706;DHT22;70229;48.010;7.852;2023-07-31T15:58:17;25.30;52.10
80706;DHT22;70229;48.010;7.852;2023-07-31T16:00:43;25.20;52.70
80706;DHT22;70229;48.010;7.852;2023-07-31T16:03:09;25.20;52.10
80706;DHT22;70229;48.010;7.852;2023-07-31T16:05:34;25.00;52.60
80706;DHT22;70229;48.010;7.852;2023-07-31T16:08:00;25.00;52.90
80706;DHT22;70229;48.010;7.852;2023-07-31T16:10:26;24.80;53.10
80706;DHT22;70229;48.010;7.852;2023-07-31T16:12:51;24.70;53.90
80706;DHT22;70229;48.010;7.852;2023-07-31T16:15:17;24.50;54.80
80706;DHT22;70229;48.010;7.852;2023-07-31T16:17:43;24.50;56.30
80706;DHT22;70229;48.010;7.852;2023-07-31T16:20:09;24.40;57.50
80706;DHT22;70229;48.010;7.852;2023-07-31T16:22:35;24.40;57.60
80706;DHT22;70229;48.010;7.852;2023-07-31T16:25:00;24.50;57.60
80706;DHT22;70229;48.010;7.852;2023-07-31T16:27:26;24.40;57.40
80706;DHT22;70229;48.010;7.852;2023-07-31T16:29:51;24.40;58.10
80706;DHT22;70229;48.010;7.852;2023-07-31T16:32:17;24.40;57.80
80706;DHT22;70229;48.010;7.852;2023-07-31T16:34:42;24.50;57.80
80706;DHT22;70229;48.010;7.852;2023-07-31T16:37:08;24.40;57.30
80706;DHT22;70229;48.010;7.852;2023-07-31T16:39:34;24.40;58.10
80706;DHT22;70229;48.010;7.852;2023-07-31T16:42:03;24.30;58.60
80706;DHT22;70229;48.010;7.852;2023-07-31T16:44:29;24.20;58.10
80706;DHT22;70229;48.010;7.852;2023-07-31T16:46:55;24.20;59.00
80706;DHT22;70229;48.010;7.852;2023-07-31T16:49:21;24.20;58.80
80706;DHT22;70229;48.010;7.852;2023-07-31T16:51:47;24.20;58.20
80706;DHT22;70229;48.010;7.852;2023-07-31T16:54:13;24.20;58.70
80706;DHT22;70229;48.010;7.852;2023-07-31T16:56:38;24.20;58.30
80706;DHT22;70229;48.010;7.852;2023-07-31T16:59:04;24.20;58.10
80706;DHT22;70229;48.010;7.852;2023-07-31T17:01:29;24.20;58.80
80706;DHT22;70229;48.010;7.852;2023-07-31T17:03:58;24.10;58.60
80706;DHT22;70229;48.010;7.852;2023-07-31T17:06:28;24.00;58.50
80706;DHT22;70229;48.010;7.852;2023-07-31T17:08:54;24.00;58.70
80706;DHT22;70229;48.010;7.852;2023-07-31T17:11:20;23.80;59.10
80706;DHT22;70229;48.010;7.852;2023-07-31T17:13:46;23.90;59.70
80706;DHT22;70229;48.010;7.852;2023-07-31T17:16:11;23.90;59.20
80706;DHT22;70229;48.010;7.852;2023-07-31T17:18:37;23.90;59.10
80706;DHT22;70229;48.010;7.852;2023-07-31T17:21:02;23.90;59.40
80706;DHT22;70229;48.010;7.852;2023-07-31T17:23:29;23.90;59.20
80706;DHT22;70229;48.010;7.852;2023-07-31T17:25:54;23.90;59.10
80706;DHT22;70229;48.010;7.852;2023-07-31T17:28:20;23.90;58.90
80706;DHT22;70229;48.010;7.852;2023-07-31T17:30:47;23.90;59.70
80706;DHT22;70229;48.010;7.852;2023-07-31T17:33:14;23.90;59.50
80706;DHT22;70229;48.010;7.852;2023-07-31T17:35:40;23.80;59.40
80706;DHT22;70229;48.010;7.852;2023-07-31T17:38:06;23.80;59.60
80706;DHT22;70229;48.010;7.852;2023-07-31T17:40:32;23.80;59.60
80706;DHT22;70229;48.010;7.852;2023-07-31T17:42:57;23.80;59.60
80706;DHT22;70229;48.010;7.852;2023-07-31T17:45:23;23.80;59.40
80706;DHT22;70229;48.010;7.852;2023-07-31T17:47:49;23.80;59.80
80706;DHT22;70229;48.010;7.852;2023-07-31T17:50:14;23.70;59.40
80706;DHT22;70229;48.010;7.852;2023-07-31T17:52:40;23.70;59.50
80706;DHT22;70229;48.010;7.852;2023-07-31T17:55:07;23.80;59.60
80706;DHT22;70229;48.010;7.852;2023-07-31T17:57:33;23.70;59.60
80706;DHT22;70229;48.010;7.852;2023-07-31T17:59:58;23.70;60.00
80706;DHT22;70229;48.010;7.852;2023-07-31T18:02:24;23.60;60.30
80706;DHT22;70229;48.010;7.852;2023-07-31T18:04:49;23.50;59.70
80706;DHT22;70229;48.010;7.852;2023-07-31T18:07:15;23.40;60.20
80706;DHT22;70229;48.010;7.852;2023-07-31T18:09:41;23.50;60.20
80706;DHT22;70229;48.010;7.852;2023-07-31T18:12:07;23.50;60.50
80706;DHT22;70229;48.010;7.852;2023-07-31T18:14:33;23.50;60.70
80706;DHT22;70229;48.010;7.852;2023-07-31T18:17:03;23.60;61.10
80706;DHT22;70229;48.010;7.852;2023-07-31T18:19:29;23.40;61.20
80706;DHT22;70229;48.010;7.852;2023-07-31T18:21:54;23.40;61.30
80706;DHT22;70229;48.010;7.852;2023-07-31T18:24:20;23.40;61.70
80706;DHT22;70229;48.010;7.852;2023-07-31T18:26:46;23.30;61.50
80706;DHT22;70229;48.010;7.852;2023-07-31T18:29:11;23.20;61.60
80706;DHT22;70229;48.010;7.852;2023-07-31T18:31:37;23.20;61.40
80706;DHT22;70229;48.010;7.852;2023-07-31T18:34:02;23.20;61.40
80706;DHT22;70229;48.010;7.852;2023-07-31T18:36:28;23.20;61.00
80706;DHT22;70229;48.010;7.852;2023-07-31T18:38:54;23.20;60.90
80706;DHT22;70229;48.010;7.852;2023-07-31T18:41:19;23.20;60.90
80706;DHT22;70229;48.010;7.852;2023-07-31T18:43:45;23.30;60.70
80706;DHT22;70229;48.010;7.852;2023-07-31T18:46:11;23.20;60.80
80706;DHT22;70229;48.010;7.852;2023-07-31T18:48:37;23.20;61.10
80706;DHT22;70229;48.010;7.852;2023-07-31T18:51:03;23.20;60.70
80706;DHT22;70229;48.010;7.852;2023-07-31T18:53:29;23.20;60.70
80706;DHT22;70229;48.010;7.852;2023-07-31T18:55:55;23.30;61.00
80706;DHT22;70229;48.010;7.852;2023-07-31T18:58:20;23.20;61.00
80706;DHT22;70229;48.010;7.852;2023-07-31T19:00:46;23.10;61.40
80706;DHT22;70229;48.010;7.852;2023-07-31T19:03:12;23.10;61.40
80706;DHT22;70229;48.010;7.852;2023-07-31T19:05:41;23.10;61.10
80706;DHT22;70229;48.010;7.852;2023-07-31T19:08:07;23.00;61.30
80706;DHT22;70229;48.010;7.852;2023-07-31T19:10:34;23.10;61.50
80706;DHT22;70229;48.010;7.852;2023-07-31T19:12:59;23.10;61.40
80706;DHT22;70229;48.010;7.852;2023-07-31T19:15:25;23.10;61.40
80706;DHT22;70229;48.010;7.852;2023-07-31T19:17:51;23.10;61.60
80706;DHT22;70229;48.010;7.852;2023-07-31T19:20:16;23.10;61.50
80706;DHT22;70229;48.010;7.852;2023-07-31T19:22:42;23.10;61.10
80706;DHT22;70229;48.010;7.852;2023-07-31T19:25:08;23.10;60.80
80706;DHT22;70229;48.010;7.852;2023-07-31T19:27:33;23.00;61.10
80706;DHT22;70229;48.010;7.852;2023-07-31T19:29:59;23.10;62.30
80706;DHT22;70229;48.010;7.852;2023-07-31T19:32:24;23.00;62.00
80706;DHT22;70229;48.010;7.852;2023-07-31T19:34:50;22.90;62.50
80706;DHT22;70229;48.010;7.852;2023-07-31T19:37:16;22.80;64.10
80706;DHT22;70229;48.010;7.852;2023-07-31T19:39:42;22.90;64.60
80706;DHT22;70229;48.010;7.852;2023-07-31T19:42:09;22.80;65.30
80706;DHT22;70229;48.010;7.852;2023-07-31T19:44:34;22.80;66.20
80706;DHT22;70229;48.010;7.852;2023-07-31T19:47:00;22.70;65.90
80706;DHT22;70229;48.010;7.852;2023-07-31T19:49:28;22.60;65.50
80706;DHT22;70229;48.010;7.852;2023-07-31T19:51:54;22.60;65.50
80706;DHT22;70229;48.010;7.852;2023-07-31T19:54:19;22.60;66.80
80706;DHT22;70229;48.010;7.852;2023-07-31T19:56:45;22.60;67.80
80706;DHT22;70229;48.010;7.852;2023-07-31T19:59:10;22.50;68.80
80706;DHT22;70229;48.010;7.852;2023-07-31T20:01:36;22.40;68.50
80706;DHT22;70229;48.010;7.852;2023-07-31T20:04:02;22.40;69.10
80706;DHT22;70229;48.010;7.852;2023-07-31T20:06:28;22.30;70.00
80706;DHT22;70229;48.010;7.852;2023-07-31T20:08:54;22.20;71.10
80706;DHT22;70229;48.010;7.852;2023-07-31T20:11:21;23.00;72.60
80706;DHT22;70229;48.010;7.852;2023-07-31T20:13:46;22.20;72.70
80706;DHT22;70229;48.010;7.852;2023-07-31T20:16:12;22.00;71.00
80706;DHT22;70229;48.010;7.852;2023-07-31T20:18:37;22.00;70.60
80706;DHT22;70229;48.010;7.852;2023-07-31T20:21:06;22.00;70.70
80706;DHT22;70229;48.010;7.852;2023-07-31T20:23:31;21.90;70.00
80706;DHT22;70229;48.010;7.852;2023-07-31T20:25:57;22.00;69.70
80706;DHT22;70229;48.010;7.852;2023-07-31T20:28:22;22.10;69.30
80706;DHT22;70229;48.010;7.852;2023-07-31T20:30:48;22.10;67.80
80706;DHT22;70229;48.010;7.852;2023-07-31T20:33:13;22.20;68.20
80706;DHT22;70229;48.010;7.852;2023-07-31T20:35:39;22.20;68.80
80706;DHT22;70229;48.010;7.852;2023-07-31T20:38:05;22.20;68.60
80706;DHT22;70229;48.010;7.852;2023-07-31T20:40:30;22.30;68.30
80706;DHT22;70229;48.010;7.852;2023-07-31T20:42:57;22.40;67.70
80706;DHT22;70229;48.010;7.852;2023-07-31T20:45:25;22.30;65.90
80706;DHT22;70229;48.010;7.852;2023-07-31T20:47:51;22.40;66.60
80706;DHT22;70229;48.010;7.852;2023-07-31T20:50:16;22.40;66.30
80706;DHT22;70229;48.010;7.852;2023-07-31T20:52:42;22.40;66.00
80706;DHT22;70229;48.010;7.852;2023-07-31T20:55:08;22.60;65.50
80706;DHT22;70229;48.010;7.852;2023-07-31T20:57:33;22.60;64.40
80706;DHT22;70229;48.010;7.852;2023-07-31T20:59:59;22.60;64.10
80706;DHT22;70229;48.010;7.852;2023-07-31T21:02:24;22.80;63.40
80706;DHT22;70229;48.010;7.852;2023-07-31T21:04:50;22.70;63.50
80706;DHT22;70229;48.010;7.852;2023-07-31T21:07:16;22.70;63.10
80706;DHT22;70229;48.010;7.852;2023-07-31T21:09:42;22.60;64.20
80706;DHT22;70229;48.010;7.852;2023-07-31T21:12:11;22.60;65.10
80706;DHT22;70229;48.010;7.852;2023-07-31T21:14:36;22.50;65.50
80706;DHT22;70229;48.010;7.852;2023-07-31T21:17:02;22.60;66.00
80706;DHT22;70229;48.010;7.852;2023-07-31T21:19:27;22.40;66.90
80706;DHT22;70229;48.010;7.852;2023-07-31T21:21:53;22.40;66.10
80706;DHT22;70229;48.010;7.852;2023-07-31T21:24:18;22.30;67.50
80706;DHT22;70229;48.010;7.852;2023-07-31T21:26:44;23.00;67.70
80706;DHT22;70229;48.010;7.852;2023-07-31T21:29:10;22.20;68.90
80706;DHT22;70229;48.010;7.852;2023-07-31T21:31:35;22.20;69.40
80706;DHT22;70229;48.010;7.852;2023-07-31T21:34:01;22.20;67.80
80706;DHT22;70229;48.010;7.852;2023-07-31T21:36:27;22.10;68.70
80706;DHT22;70229;48.010;7.852;2023-07-31T21:38:52;22.10;70.20
80706;DHT22;70229;48.010;7.852;2023-07-31T21:41:18;22.00;70.20
80706;DHT22;70229;48.010;7.852;2023-07-31T21:43:43;22.00;70.20
80706;DHT22;70229;48.010;7.852;2023-07-31T21:46:09;22.00;71.20
80706;DHT22;70229;48.010;7.852;2023-07-31T21:48:35;22.00;70.70
80706;DHT22;70229;48.010;7.852;2023-07-31T21:51:00;21.90;69.80
80706;DHT22;70229;48.010;7.852;2023-07-31T21:53:26;21.90;70.60
80706;DHT22;70229;48.010;7.852;2023-07-31T21:55:51;21.90;70.20
80706;DHT22;70229;48.010;7.852;2023-07-31T21:58:17;21.90;70.90
80706;DHT22;70229;48.010;7.852;2023-07-31T22:00:42;21.90;70.90
80706;DHT22;70229;48.010;7.852;2023-07-31T22:03:08;21.80;70.00
80706;DHT22;70229;48.010;7.852;2023-07-31T22:05:34;21.80;71.70
80706;DHT22;70229;48.010;7.852;2023-07-31T22:07:59;21.80;73.00
80706;DHT22;70229;48.010;7.852;2023-07-31T22:10:25;21.80;71.60
80706;DHT22;70229;48.010;7.852;2023-07-31T22:12:50;21.70;71.70
80706;DHT22;70229;48.010;7.852;2023-07-31T22:15:16;21.60;72.00
80706;DHT22;70229;48.010;7.852;2023-07-31T22:17:42;21.50;75.80
80706;DHT22;70229;48.010;7.852;2023-07-31T22:20:08;21.40;77.40
80706;DHT22;70229;48.010;7.852;2023-07-31T22:22:34;21.30;81.20
80706;DHT22;70229;48.010;7.852;2023-07-31T22:25:00;21.20;84.00
80706;DHT22;70229;48.010;7.852;2023-07-31T22:27:26;20.80;85.80
80706;DHT22;70229;48.010;7.852;2023-07-31T22:29:51;20.50;85.90
80706;DHT22;70229;48.010;7.852;2023-07-31T22:32:17;20.50;86.30
80706;DHT22;70229;48.010;7.852;2023-07-31T22:34:42;20.30;87.80
80706;DHT22;70229;48.010;7.852;2023-07-31T22:37:09;20.20;88.60
80706;DHT22;70229;48.010;7.852;2023-07-31T22:39:35;20.10;88.90
80706;DHT22;70229;48.010;7.852;2023-07-31T22:42:01;20.00;85.90
80706;DHT22;70229;48.010;7.852;2023-07-31T22:44:26;20.30;85.80
80706;DHT22;70229;48.010;7.852;2023-07-31T22:46:52;20.30;85.20
80706;DHT22;70229;48.010;7.852;2023-07-31T22:49:17;20.40;84.70
80706;DHT22;70229;48.010;7.852;2023-07-31T22:51:43;20.40;82.60
80706;DHT22;70229;48.010;7.852;2023-07-31T22:54:09;20.50;83.60
80706;DHT22;70229;48.010;7.852;2023-07-31T22:56:34;20.60;82.30
80706;DHT22;70229;48.010;7.852;2023-07-31T22:59:00;20.50;82.20
80706;DHT22;70229;48.010;7.852;2023-07-31T23:01:25;20.40;82.30
80706;DHT22;70229;48.010;7.852;2023-07-31T23:03:52;20.40;81.20
80706;DHT22;70229;48.010;7.852;2023-07-31T23:06:18;20.40;81.80
80706;DHT22;70229;48.010;7.852;2023-07-31T23:08:44;20.30;82.10
80706;DHT22;70229;48.010;7.852;2023-07-31T23:11:09;20.40;81.30
80706;DHT22;70229;48.010;7.852;2023-07-31T23:13:36;20.30;81.80
80706;DHT22;70229;48.010;7.852;2023-07-31T23:16:02;20.30;81.70